Time;durP1;ratioP1;P1;durP2;ratioP2;P2;SDS_P1;SDS_P2;PMS_P1;PMS_P2;Temp;Humidity;BMP_temperature;BMP_pressure;BME280_temperature;BME280_humidity;BME280_pressure;Samples;Min_cycle;Max_cycle;Signal;HPM_P1;HPM_P2
2023/03/29 00:01:46;;;;;;;0.20;0.20;;;;;;;8.04;45.95;101337.66;5076031;28;20093;-63
2023/03/29 00:04:13;;;;;;;0.20;0.20;;;;;;;8.19;48.16;101340.03;5076310;28;20475;-62
2023/03/29 00:06:40;;;;;;;0.20;0.20;;;;;;;8.07;48.11;101337.03;5076306;28;20035;-62
2023/03/29 00:09:08;;;;;;;0.20;0.20;;;;;;;7.98;48.36;101341.72;5076171;28;20031;-63
2023/03/29 00:11:36;;;;;;;0.20;0.20;;;;;;;8.12;49.09;101345.22;5076243;28;20027;-63
2023/03/29 00:14:02;;;;;;;0.20;0.20;;;;;;;7.95;49.56;101334.06;5076419;28;20028;-62
2023/03/29 00:16:27;;;;;;;0.20;0.20;;;;;;;7.93;48.44;101330.75;5076563;28;20038;-63
2023/03/29 00:18:55;;;;;;;0.30;0.30;;;;;;;7.86;49.24;101336.75;5076430;28;20486;-62
2023/03/29 00:21:23;;;;;;;0.20;0.20;;;;;;;7.93;50.06;101341.84;5092953;28;20039;-62
2023/03/29 00:23:53;;;;;;;0.20;0.20;;;;;;;7.96;49.76;101358.66;5076046;28;20028;-63
2023/03/29 00:26:21;;;;;;;0.20;0.20;;;;;;;7.91;50.07;101355.22;5076276;28;20032;-62
2023/03/29 00:28:49;;;;;;;0.20;0.20;;;;;;;7.73;49.99;101343.19;5075949;28;20107;-62
2023/03/29 00:31:20;;;;;;;0.20;0.20;;;;;;;7.81;48.86;101340.47;5075879;28;20035;-62
2023/03/29 00:33:46;;;;;;;0.30;0.30;;;;;;;7.71;49.34;101337.97;5075838;28;20024;-63
2023/03/29 00:36:15;;;;;;;0.25;0.25;;;;;;;7.69;49.47;101345.78;5075881;28;20024;-63
2023/03/29 00:38:46;;;;;;;0.20;0.20;;;;;;;7.87;49.83;101339.19;5092752;28;20039;-62
2023/03/29 00:41:11;;;;;;;0.20;0.20;;;;;;;7.75;49.14;101327.88;5075809;28;20122;-63
2023/03/29 00:43:55;;;;;;;0.20;0.20;;;;;;;7.79;48.39;101334.44;5075792;28;20124;-62
2023/03/29 00:46:22;;;;;;;0.20;0.20;;;;;;;7.93;47.23;101336.31;5076365;28;20073;-64
2023/03/29 00:48:49;;;;;;;0.20;0.20;;;;;;;7.98;48.44;101331.44;5076342;28;20039;-63
2023/03/29 00:51:23;;;;;;;0.30;0.30;;;;;;;7.97;48.99;101337.31;5092983;28;20035;-63
2023/03/29 00:53:52;;;;;;;0.20;0.20;;;;;;;7.96;50.16;101341.22;5093868;28;20496;-63
2023/03/29 00:56:28;;;;;;;0.20;0.20;;;;;;;7.90;50.15;101345.25;5075683;28;20032;-64
2023/03/29 00:58:57;;;;;;;0.20;0.20;;;;;;;7.85;51.78;101347.03;5075935;28;20466;-63
2023/03/29 01:01:37;;;;;;;0.20;0.20;;;;;;;8.00;51.18;101345.81;5063224;28;20061;-63
2023/03/29 01:04:16;;;;;;;0.20;0.20;;;;;;;8.03;50.99;101347.94;5052788;28;20115;-63
2023/03/29 01:06:48;;;;;;;0.20;0.20;;;;;;;7.93;51.86;101347.38;5052512;28;20037;-63
2023/03/29 01:09:17;;;;;;;0.20;0.20;;;;;;;7.94;52.91;101349.03;5052223;28;20036;-63
2023/03/29 01:11:54;;;;;;;0.30;0.30;;;;;;;7.83;53.07;101345.72;5052353;28;20029;-63
2023/03/29 01:14:37;;;;;;;0.20;0.20;;;;;;;7.75;53.42;101314.03;5052133;28;20025;-63
2023/03/29 01:17:05;;;;;;;0.20;0.20;;;;;;;7.84;54.75;101353.72;5052093;28;20036;-66
2023/03/29 01:19:39;;;;;;;0.30;0.30;;;;;;;7.85;55.73;101351.75;5052105;28;20032;-63
2023/03/29 01:22:19;;;;;;;0.30;0.30;;;;;;;7.81;55.93;101357.09;5052053;28;20029;-62
2023/03/29 01:25:13;;;;;;;0.20;0.20;;;;;;;7.94;57.45;101349.03;5052883;28;20075;-63
2023/03/29 01:28:10;;;;;;;0.30;0.30;;;;;;;7.73;58.43;101355.09;5052087;28;20063;-63
2023/03/29 01:30:45;;;;;;;0.20;0.20;;;;;;;7.70;60.01;101341.06;5062537;28;20029;-64
2023/03/29 01:33:22;;;;;;;0.30;0.30;;;;;;;7.54;59.68;101329.53;5052171;28;20479;-63
2023/03/29 01:36:16;;;;;;;0.20;0.20;;;;;;;7.50;60.21;101343.19;5052525;28;20021;-63
2023/03/29 01:38:49;;;;;;;0.30;0.30;;;;;;;7.40;61.16;101335.09;5053433;28;20033;-64
2023/03/29 01:41:15;;;;;;;0.20;0.20;;;;;;;7.44;60.13;101324.25;5052811;28;20048;-64
2023/03/29 01:43:45;;;;;;;0.20;0.20;;;;;;;7.35;58.11;101322.22;5051861;28;20067;-63
2023/03/29 01:46:24;;;;;;;0.20;0.20;;;;;;;7.41;56.69;101316.56;5051830;28;20491;-64
2023/03/29 01:48:55;;;;;;;0.30;0.30;;;;;;;7.39;54.29;101316.06;5051809;28;20124;-62
2023/03/29 01:51:36;;;;;;;0.20;0.20;;;;;;;7.39;54.74;101316.06;5052538;28;20071;-63
2023/03/29 01:54:37;;;;;;;0.20;0.20;;;;;;;7.44;55.59;101313.16;5051773;28;20053;-63
2023/03/29 01:57:05;;;;;;;0.20;0.20;;;;;;;7.45;55.93;101306.47;5038240;28;20056;-63
2023/03/29 01:59:38;;;;;;;0.30;0.30;;;;;;;7.45;57.31;101295.41;5051701;28;20021;-63
2023/03/29 02:02:10;;;;;;;0.20;0.20;;;;;;;7.50;57.02;101303.59;5052224;28;20087;-63
2023/03/29 02:04:48;;;;;;;0.30;0.30;;;;;;;7.64;57.00;101298.00;5055301;28;20029;-63
2023/03/29 02:07:18;;;;;;;0.20;0.20;;;;;;;7.68;58.51;101299.00;5056072;28;20056;-63
2023/03/29 02:09:47;;;;;;;0.20;0.20;;;;;;;7.66;59.84;101287.41;5055462;28;20037;-63
2023/03/29 02:12:15;;;;;;;0.20;0.20;;;;;;;7.81;60.78;101301.69;5055058;28;20087;-64
2023/03/29 02:14:42;;;;;;;0.30;0.30;;;;;;;7.76;60.49;101287.97;5055101;28;20021;-64
2023/03/29 02:17:18;;;;;;;0.30;0.30;;;;;;;7.70;61.07;101291.19;5055580;28;20032;-63
2023/03/29 02:19:49;;;;;;;0.20;0.20;;;;;;;7.66;60.88;101304.84;5054966;28;20021;-64
2023/03/29 02:22:22;;;;;;;0.30;0.30;;;;;;;7.53;61.26;101305.75;5054994;28;20033;-64
2023/03/29 02:24:55;;;;;;;0.30;0.30;;;;;;;7.44;61.88;101302.09;5056186;28;20539;-64
2023/03/29 02:27:23;;;;;;;0.22;0.22;;;;;;;7.44;60.84;101299.31;5054917;28;20079;-62
2023/03/29 02:29:48;;;;;;;0.30;0.30;;;;;;;7.42;60.51;101307.13;5054794;28;20029;-63
2023/03/29 02:32:27;;;;;;;0.30;0.30;;;;;;;7.38;60.40;101304.16;5054654;28;20032;-62
2023/03/29 02:35:00;;;;;;;0.20;0.20;;;;;;;7.37;59.93;101301.72;5054973;28;20383;-63
2023/03/29 02:37:29;;;;;;;0.30;0.30;;;;;;;7.34;59.87;101297.59;5054369;28;20032;-63
2023/03/29 02:39:57;;;;;;;0.30;0.30;;;;;;;7.39;58.70;101293.91;5054580;28;20032;-63
2023/03/29 02:42:24;;;;;;;0.20;0.20;;;;;;;7.41;58.52;101308.28;5055385;28;20105;-63
2023/03/29 02:44:56;;;;;;;0.20;0.20;;;;;;;7.54;58.56;101307.38;5054517;28;20025;-63
2023/03/29 02:47:33;;;;;;;0.20;0.20;;;;;;;7.42;57.85;101301.59;5055083;28;20025;-62
2023/03/29 02:50:05;;;;;;;0.20;0.20;;;;;;;7.41;58.10;101306.31;5054490;28;20033;-63
2023/03/29 02:52:38;;;;;;;0.20;0.20;;;;;;;7.45;57.95;101307.31;5054899;28;20463;-63
2023/03/29 02:55:10;;;;;;;0.20;0.20;;;;;;;7.49;57.71;101304.72;5054364;28;20074;-63
2023/03/29 02:57:39;;;;;;;0.20;0.20;;;;;;;7.32;57.73;101303.47;5055152;28;20110;-63
2023/03/29 03:00:10;;;;;;;0.30;0.30;;;;;;;7.45;56.69;101315.59;5054217;28;20044;-63
2023/03/29 03:02:37;;;;;;;0.30;0.30;;;;;;;7.31;57.42;101310.16;5093108;28;20048;-63
2023/03/29 03:05:04;;;;;;;0.20;0.20;;;;;;;7.34;57.26;101297.59;5077549;28;20028;-62
2023/03/29 03:07:33;;;;;;;0.20;0.20;;;;;;;7.31;56.49;101304.59;5077502;28;20115;-63
2023/03/29 03:10:00;;;;;;;0.30;0.30;;;;;;;7.14;57.54;101298.94;5077696;28;20562;-64
2023/03/29 03:12:31;;;;;;;0.20;0.20;;;;;;;7.16;57.84;101290.31;5077652;28;20036;-63
2023/03/29 03:14:59;;;;;;;0.30;0.30;;;;;;;7.14;59.07;101304.47;5059935;28;20032;-64
2023/03/29 03:17:26;;;;;;;0.20;0.20;;;;;;;7.10;58.41;101311.75;5077299;28;20032;-63
2023/03/29 03:19:52;;;;;;;0.20;0.20;;;;;;;7.16;59.12;101318.00;5077924;28;20036;-63
2023/03/29 03:22:23;;;;;;;0.30;0.30;;;;;;;7.01;59.43;101316.38;5094063;28;20527;-63
2023/03/29 03:24:51;;;;;;;0.20;0.20;;;;;;;7.08;58.84;101306.53;5093967;28;20020;-64
2023/03/29 03:27:20;;;;;;;0.20;0.20;;;;;;;7.13;59.36;101308.34;5077641;28;20028;-63
2023/03/29 03:29:48;;;;;;;0.28;0.28;;;;;;;7.31;58.34;101321.22;5095490;28;20112;-64
2023/03/29 03:32:13;;;;;;;0.20;0.20;;;;;;;7.24;57.50;101322.75;5093812;28;20064;-63
2023/03/29 03:34:43;;;;;;;0.20;0.20;;;;;;;7.08;57.62;101305.69;5077243;28;20055;-63
2023/03/29 03:37:10;;;;;;;0.20;0.20;;;;;;;6.97;54.42;101307.88;5094056;28;20036;-64
2023/03/29 03:39:39;;;;;;;0.20;0.20;;;;;;;7.05;53.31;101309.91;5095261;28;20044;-64
2023/03/29 03:42:05;;;;;;;0.20;0.20;;;;;;;7.03;52.96;101309.41;5076783;28;20111;-63
2023/03/29 03:44:33;;;;;;;0.20;0.20;;;;;;;7.01;53.51;101311.66;5076752;28;20178;-65
2023/03/29 03:47:00;;;;;;;0.30;0.30;;;;;;;7.01;54.29;101317.19;5077308;28;20039;-63
2023/03/29 03:49:26;;;;;;;0.20;0.20;;;;;;;6.94;54.34;101316.00;5076584;28;20020;-64
2023/03/29 03:51:51;;;;;;;0.20;0.20;;;;;;;7.01;54.94;101310.84;5076580;28;20035;-63
2023/03/29 03:54:17;;;;;;;0.20;0.20;;;;;;;7.04;55.57;101316.59;5076821;28;20040;-63
2023/03/29 03:56:43;;;;;;;0.20;0.20;;;;;;;7.03;55.13;101325.19;5076538;28;20036;-62
2023/03/29 03:59:11;;;;;;;0.30;0.30;;;;;;;7.06;55.67;101330.91;5076477;28;20028;-62
2023/03/29 04:01:36;;;;;;;0.20;0.20;;;;;;;7.08;56.43;101327.84;5062558;28;20124;-63
2023/03/29 04:04:02;;;;;;;0.20;0.20;;;;;;;6.76;57.15;101287.31;5053415;28;20064;-63
2023/03/29 04:06:32;;;;;;;0.20;0.20;;;;;;;6.92;56.78;101330.13;5054867;28;20391;-65
2023/03/29 04:09:00;;;;;;;0.20;0.20;;;;;;;6.90;58.01;101320.50;5054647;28;20028;-63
2023/03/29 04:11:25;;;;;;;0.20;0.20;;;;;;;6.86;58.43;101320.31;5053061;28;20427;-63
2023/03/29 04:13:53;;;;;;;0.20;0.20;;;;;;;6.94;59.19;101327.06;5052885;28;20035;-62
2023/03/29 04:16:21;;;;;;;0.30;0.30;;;;;;;6.95;59.03;101328.69;5053648;28;20035;-64
2023/03/29 04:18:51;;;;;;;0.30;0.30;;;;;;;6.85;59.78;101334.44;5053838;28;20133;-63
2023/03/29 04:21:19;;;;;;;0.30;0.30;;;;;;;6.80;61.16;101338.13;5053014;28;20574;-63
2023/03/29 04:23:47;;;;;;;0.30;0.30;;;;;;;6.77;61.52;101341.53;5053737;28;20468;-62
2023/03/29 04:26:16;;;;;;;0.20;0.20;;;;;;;6.72;61.44;101341.66;5052365;28;20025;-64
2023/03/29 04:28:42;;;;;;;0.20;0.20;;;;;;;6.68;62.21;101338.66;5052952;28;20422;-65
2023/03/29 04:31:11;;;;;;;0.20;0.20;;;;;;;6.73;62.70;101338.56;5052907;28;20029;-64
2023/03/29 04:33:37;;;;;;;0.20;0.20;;;;;;;6.69;62.52;101332.00;5053528;28;20459;-63
2023/03/29 04:36:07;;;;;;;0.30;0.30;;;;;;;6.69;62.25;101331.19;5052578;28;20488;-63
2023/03/29 04:38:34;;;;;;;0.20;0.20;;;;;;;6.66;62.82;101321.56;5052928;28;20486;-64
2023/03/29 04:41:03;;;;;;;0.30;0.30;;;;;;;6.65;63.21;101333.75;5052823;28;20032;-63
2023/03/29 04:43:33;;;;;;;0.30;0.30;;;;;;;6.82;63.01;101333.94;5052795;28;20063;-63
2023/03/29 04:45:58;;;;;;;0.20;0.20;;;;;;;6.42;63.85;101276.72;5052525;28;20119;-64
2023/03/29 04:48:27;;;;;;;0.20;0.20;;;;;;;6.77;64.72;101341.53;5052474;28;20041;-64
2023/03/29 04:50:55;;;;;;;0.22;0.22;;;;;;;6.88;63.22;101347.69;5052488;28;20025;-62
2023/03/29 04:53:23;;;;;;;0.20;0.20;;;;;;;6.92;63.10;101340.38;5052958;28;20198;-70
2023/03/29 04:55:48;;;;;;;0.30;0.30;;;;;;;6.89;63.79;101343.78;5053623;28;20094;-63
2023/03/29 04:58:16;;;;;;;0.20;0.20;;;;;;;6.99;63.85;101338.03;5054095;28;20022;-63
2023/03/29 05:00:44;;;;;;;0.20;0.20;;;;;;;7.03;63.66;101348.16;5060040;28;20056;-62
2023/03/29 05:03:13;;;;;;;0.30;0.30;;;;;;;6.99;63.92;101341.59;5077671;28;20115;-64
2023/03/29 05:05:43;;;;;;;0.20;0.20;;;;;;;7.13;63.35;101344.31;5095009;28;20032;-64
2023/03/29 05:08:11;;;;;;;0.20;0.20;;;;;;;7.33;59.83;101341.09;5078428;28;20119;-63
2023/03/29 05:10:41;;;;;;;0.30;0.30;;;;;;;7.78;58.29;101341.13;5095389;28;20031;-65
2023/03/29 05:13:08;;;;;;;0.28;0.28;;;;;;;8.36;56.91;101333.78;5078143;28;20419;-64
2023/03/29 05:15:37;;;;;;;0.20;0.20;;;;;;;8.91;55.11;101334.13;5076321;28;20028;-64
2023/03/29 05:18:04;;;;;;;0.20;0.20;;;;;;;9.45;52.02;101331.88;5093418;28;20028;-63
2023/03/29 05:20:32;;;;;;;0.20;0.20;;;;;;;9.95;49.84;101339.66;5076743;28;20032;-63
2023/03/29 05:22:58;;;;;;;0.20;0.20;;;;;;;10.50;48.83;101351.97;5076734;28;20016;-64
2023/03/29 05:25:26;;;;;;;0.30;0.30;;;;;;;11.01;47.03;101347.25;5076773;28;20032;-65
2023/03/29 05:27:51;;;;;;;0.20;0.20;;;;;;;11.56;44.88;101354.56;5076172;28;20126;-63
2023/03/29 05:30:21;;;;;;;0.20;0.20;;;;;;;12.00;43.92;101350.22;5094461;28;20161;-63
2023/03/29 05:32:49;;;;;;;0.30;0.30;;;;;;;12.49;42.32;101355.88;5093224;28;20028;-64
2023/03/29 05:35:14;;;;;;;0.20;0.20;;;;;;;12.89;40.97;101346.00;5075644;28;20038;-63
2023/03/29 05:37:42;;;;;;;0.20;0.20;;;;;;;13.33;39.92;101352.59;5078070;28;20024;-65
2023/03/29 05:40:11;;;;;;;0.25;0.25;;;;;;;13.77;38.23;101352.69;5079840;28;20466;-64
2023/03/29 05:42:40;;;;;;;0.20;0.20;;;;;;;14.22;37.49;101363.53;5080226;28;20359;-63
2023/03/29 05:45:10;;;;;;;0.20;0.20;;;;;;;14.75;36.46;101368.88;5097867;28;20463;-65
2023/03/29 05:47:37;;;;;;;0.20;0.20;;;;;;;15.13;35.69;101369.03;5080080;28;20024;-63
2023/03/29 05:50:04;;;;;;;0.20;0.20;;;;;;;15.56;34.22;101341.94;5080474;28;20090;-64
2023/03/29 05:52:32;;;;;;;0.20;0.20;;;;;;;15.58;34.27;101373.22;5079596;28;20032;-66
2023/03/29 05:55:04;;;;;;;0.20;0.20;;;;;;;15.86;32.50;101367.41;5080210;28;20036;-66
2023/03/29 05:57:30;;;;;;;0.20;0.20;;;;;;;16.51;32.33;101375.03;5097830;28;20034;-66
2023/03/29 05:59:58;;;;;;;0.20;0.20;;;;;;;16.46;32.31;101379.00;5079479;28;20115;-63
2023/03/29 06:02:27;;;;;;;0.20;0.20;;;;;;;16.76;32.17;101372.69;5078091;28;20142;-65
2023/03/29 06:04:56;;;;;;;0.20;0.20;;;;;;;16.49;31.25;101374.63;5078965;28;20487;-64
2023/03/29 06:07:24;;;;;;;0.20;0.20;;;;;;;17.17;31.41;101373.75;5095586;28;20360;-64
2023/03/29 06:09:54;;;;;;;0.20;0.20;;;;;;;17.48;29.45;101372.59;5078521;28;20057;-62
2023/03/29 06:12:23;;;;;;;0.20;0.20;;;;;;;16.54;30.21;101371.50;5078440;28;20498;-64
2023/03/29 06:14:49;;;;;;;0.20;0.20;;;;;;;16.63;30.51;101363.63;5096727;28;20115;-63
2023/03/29 06:17:19;;;;;;;0.20;0.20;;;;;;;16.54;30.97;101365.88;5078653;28;20078;-64
2023/03/29 06:19:47;;;;;;;0.20;0.20;;;;;;;16.26;31.82;101354.16;5078633;28;20112;-64
2023/03/29 06:22:13;;;;;;;0.20;0.20;;;;;;;16.46;31.32;101361.34;5078024;28;20107;-65
2023/03/29 06:24:38;;;;;;;0.20;0.20;;;;;;;16.83;30.84;101355.97;5078042;28;20059;-65
2023/03/29 06:27:06;;;;;;;0.20;0.20;;;;;;;16.32;31.09;101361.06;5078361;28;20028;-65
2023/03/29 06:29:34;;;;;;;0.20;0.20;;;;;;;16.43;31.85;101362.06;5078066;28;20032;-64
2023/03/29 06:32:00;;;;;;;0.20;0.20;;;;;;;16.61;31.72;101370.81;5077903;28;20089;-65
2023/03/29 06:34:26;;;;;;;0.20;0.20;;;;;;;17.03;31.07;101362.28;5077842;28;20031;-63
2023/03/29 06:36:55;;;;;;;0.20;0.20;;;;;;;16.19;32.13;101364.06;5077825;28;20028;-64
2023/03/29 06:39:25;;;;;;;0.20;0.20;;;;;;;15.73;32.77;101371.56;5077941;28;20032;-65
2023/03/29 06:41:54;;;;;;;0.20;0.20;;;;;;;15.54;33.63;101363.91;5078380;28;20412;-62
2023/03/29 06:44:21;;;;;;;0.20;0.20;;;;;;;15.60;33.18;101370.84;5096288;28;20133;-62
2023/03/29 06:46:47;;;;;;;0.20;0.20;;;;;;;15.34;34.48;101377.13;5078290;28;20020;-63
2023/03/29 06:49:12;;;;;;;0.20;0.20;;;;;;;15.00;35.22;101392.72;5077758;28;20100;-64
2023/03/29 06:51:40;;;;;;;0.20;0.20;;;;;;;14.99;35.41;101391.13;5078332;28;20028;-61
2023/03/29 06:54:08;;;;;;;0.20;0.20;;;;;;;14.88;35.62;101395.66;5078003;28;20035;-61
2023/03/29 06:56:36;;;;;;;0.20;0.20;;;;;;;15.71;34.48;101400.00;5078453;28;20032;-62
2023/03/29 06:59:04;;;;;;;0.20;0.20;;;;;;;15.61;34.08;101394.94;5077947;28;20035;-62
2023/03/29 07:01:30;;;;;;;0.20;0.20;;;;;;;15.50;34.89;101393.06;5064667;28;20045;-64
2023/03/29 07:04:03;;;;;;;0.20;0.20;;;;;;;15.81;34.67;101397.78;5054588;28;20373;-62
2023/03/29 07:06:31;;;;;;;0.20;0.20;;;;;;;16.24;34.52;101397.47;5054171;28;20044;-62
2023/03/29 07:08:59;;;;;;;0.20;0.20;;;;;;;16.33;34.24;101410.44;5054636;28;20033;-62
2023/03/29 07:11:27;;;;;;;0.20;0.20;;;;;;;15.96;35.39;101402.50;5054118;28;20028;-62
2023/03/29 07:13:58;;;;;;;0.20;0.20;;;;;;;15.25;37.11;101403.72;5053912;28;20087;-61
2023/03/29 07:16:27;;;;;;;0.20;0.20;;;;;;;15.69;36.08;101393.94;5054196;28;20052;-63
2023/03/29 07:18:55;;;;;;;0.20;0.20;;;;;;;15.68;36.19;101397.13;5054989;28;20170;-64
2023/03/29 07:21:23;;;;;;;0.20;0.20;;;;;;;15.40;36.98;101388.88;5053932;28;20033;-62
2023/03/29 07:23:48;;;;;;;0.20;0.20;;;;;;;15.50;37.19;101393.91;5053948;28;20025;-62
2023/03/29 07:26:15;;;;;;;0.20;0.20;;;;;;;15.72;36.53;101406.44;5054457;28;20146;-63
2023/03/29 07:28:42;;;;;;;0.20;0.20;;;;;;;16.49;35.44;101416.75;5054181;28;20032;-62
2023/03/29 07:31:10;;;;;;;0.20;0.20;;;;;;;17.06;34.25;101412.16;5053675;28;20115;-62
2023/03/29 07:33:36;;;;;;;0.20;0.20;;;;;;;17.16;34.37;101405.88;5053549;28;20033;-62
2023/03/29 07:36:03;;;;;;;0.20;0.20;;;;;;;17.38;34.09;101411.81;5054627;28;20025;-64
2023/03/29 07:38:32;;;;;;;0.20;0.20;;;;;;;17.62;33.68;101424.63;5053428;28;20025;-64
2023/03/29 07:41:02;;;;;;;0.20;0.20;;;;;;;17.70;34.13;101421.53;5054283;28;20104;-63
2023/03/29 07:43:30;;;;;;;0.20;0.20;;;;;;;17.89;33.35;101436.66;5053186;28;20119;-62
2023/03/29 07:46:00;;;;;;;0.20;0.20;;;;;;;17.99;33.81;101427.53;5053356;28;20040;-64
2023/03/29 07:48:25;;;;;;;0.20;0.20;;;;;;;18.33;33.95;101426.34;5053690;28;20021;-65
2023/03/29 07:50:54;;;;;;;0.20;0.20;;;;;;;18.29;34.01;101428.31;5053367;28;20060;-64
2023/03/29 07:53:23;;;;;;;0.20;0.20;;;;;;;17.83;34.65;101426.94;5053166;28;20495;-65
2023/03/29 07:55:49;;;;;;;0.20;0.20;;;;;;;17.57;34.79;101437.00;5052708;28;20033;-62
2023/03/29 07:58:15;;;;;;;0.20;0.20;;;;;;;17.88;35.34;101423.78;5053808;28;20078;-62
2023/03/29 08:00:43;;;;;;;0.20;0.20;;;;;;;18.12;35.16;101402.75;5058433;28;20417;-64
2023/03/29 08:03:12;;;;;;;0.20;0.20;;;;;;;18.27;35.05;101419.44;5077045;28;20023;-64
2023/03/29 08:05:40;;;;;;;0.20;0.20;;;;;;;18.08;35.06;101422.44;5076419;28;20475;-65
2023/03/29 08:08:08;;;;;;;0.20;0.20;;;;;;;17.74;36.58;101433.69;5076252;28;20417;-63
2023/03/29 08:10:36;;;;;;;0.20;0.20;;;;;;;17.79;35.26;101440.97;5076499;28;20032;-63
2023/03/29 08:13:07;;;;;;;0.20;0.20;;;;;;;18.51;34.77;101437.00;5076506;28;20122;-64
2023/03/29 08:15:40;;;;;;;0.20;0.20;;;;;;;17.87;35.35;101399.66;5075988;28;20030;-63
2023/03/29 08:18:06;;;;;;;0.20;0.20;;;;;;;18.52;34.86;101436.59;5094375;28;20016;-65
2023/03/29 08:20:32;;;;;;;0.20;0.20;;;;;;;18.21;35.37;101426.59;5076615;28;20425;-65
2023/03/29 08:23:00;;;;;;;0.20;0.20;;;;;;;17.41;36.20;101439.19;5075848;28;20028;-63
2023/03/29 08:25:28;;;;;;;0.20;0.20;;;;;;;17.62;37.14;101438.69;5076036;28;20482;-63
2023/03/29 08:27:56;;;;;;;0.20;0.20;;;;;;;17.75;37.13;101435.28;5075871;28;20035;-64
2023/03/29 08:30:24;;;;;;;0.20;0.20;;;;;;;17.88;37.12;101423.78;5076126;28;20032;-61
2023/03/29 08:32:52;;;;;;;0.20;0.20;;;;;;;18.48;36.98;101429.28;5075817;28;20115;-64
2023/03/29 08:35:18;;;;;;;0.20;0.20;;;;;;;18.30;37.43;101424.28;5075995;28;20060;-64
2023/03/29 08:37:46;;;;;;;0.20;0.20;;;;;;;17.64;38.44;101425.88;5092951;28;20125;-65
2023/03/29 08:40:26;;;;;;;0.20;0.20;;;;;;;18.87;36.76;101437.38;5075930;28;20046;-64
2023/03/29 08:43:03;;;;;;;0.20;0.20;;;;;;;19.71;35.84;101436.38;5076096;28;20024;-64
2023/03/29 08:45:44;;;;;;;0.20;0.20;;;;;;;20.38;34.58;101444.31;5075924;28;20482;-65
2023/03/29 08:48:19;;;;;;;0.20;0.20;;;;;;;20.61;33.76;101446.00;5075465;28;20030;-63
2023/03/29 08:50:51;;;;;;;0.20;0.20;;;;;;;20.43;33.85;101440.28;5075800;28;20479;-63
2023/03/29 08:53:48;;;;;;;0.20;0.20;;;;;;;20.23;34.44;101453.94;5075520;28;20028;-64
2023/03/29 08:56:22;;;;;;;0.20;0.20;;;;;;;20.26;34.61;101458.81;5093589;28;20024;-65
2023/03/29 08:58:49;;;;;;;0.20;0.20;;;;;;;19.57;35.13;101444.75;5075759;28;20024;-65
2023/03/29 09:01:17;;;;;;;0.20;0.20;;;;;;;19.71;34.97;101447.69;5092183;28;20089;-65
2023/03/29 09:03:55;;;;;;;0.20;0.20;;;;;;;19.71;35.06;101429.91;5075914;28;20383;-64
2023/03/29 09:06:22;;;;;;;0.20;0.20;;;;;;;19.13;36.38;101454.13;5093959;28;20063;-65
2023/03/29 09:08:49;;;;;;;0.20;0.20;;;;;;;20.05;34.69;101445.41;5075852;28;20474;-63
2023/03/29 09:12:17;;;;;;;0.20;0.20;;;;;;;20.01;34.26;101449.41;5076879;28;20030;-62
2023/03/29 09:15:05;;;;;;;0.20;0.20;;;;;;;19.48;34.95;101459.19;5052839;28;20045;-63
2023/03/29 09:17:46;;;;;;;0.20;0.20;;;;;;;19.93;35.05;101453.44;5079824;28;20027;-63
2023/03/29 09:20:27;;;;;;;0.20;0.20;;;;;;;19.48;34.63;101458.38;5079844;28;20122;-63
2023/03/29 09:23:09;;;;;;;0.20;0.20;;;;;;;20.78;33.42;101445.22;5096069;28;20024;-63
2023/03/29 09:26:21;;;;;;;0.20;0.20;;;;;;;19.54;35.45;101457.59;5079616;28;20028;-63
2023/03/29 09:29:04;;;;;;;0.20;0.20;;;;;;;19.98;35.32;101436.09;5054647;28;20025;-63
2023/03/29 09:31:37;;;;;;;0.20;0.20;;;;;;;20.50;34.63;101442.34;5078237;28;20075;-64
2023/03/29 09:34:13;;;;;;;0.10;0.10;;;;;;;20.62;34.41;101444.81;5079824;28;20028;-63
2023/03/29 09:36:51;;;;;;;0.20;0.20;;;;;;;21.00;33.34;101443.22;5079775;28;20146;-64
2023/03/29 09:39:19;;;;;;;0.20;0.20;;;;;;;19.32;35.75;101448.19;5097143;28;20506;-65
2023/03/29 09:41:57;;;;;;;0.20;0.20;;;;;;;19.46;36.06;101449.50;5095796;28;20024;-64
2023/03/29 09:44:27;;;;;;;0.20;0.20;;;;;;;20.26;34.68;101439.03;5078994;28;20099;-62
2023/03/29 09:47:06;;;;;;;0.20;0.20;;;;;;;20.25;34.36;101437.41;5079067;28;20129;-64
2023/03/29 09:49:39;;;;;;;0.20;0.20;;;;;;;19.73;34.45;101453.72;5095688;28;20028;-62
2023/03/29 09:52:10;;;;;;;0.20;0.20;;;;;;;20.01;34.20;101438.13;5078675;28;20028;-63
2023/03/29 09:54:35;;;;;;;0.20;0.20;;;;;;;19.07;36.29;101444.41;5096641;28;20020;-63
2023/03/29 09:57:02;;;;;;;0.20;0.20;;;;;;;19.40;35.73;101429.31;5078971;28;20387;-62
2023/03/29 09:59:30;;;;;;;0.20;0.20;;;;;;;19.36;35.03;101440.56;5078575;28;20020;-62
2023/03/29 10:02:08;;;;;;;0.20;0.20;;;;;;;19.91;34.65;101436.06;5078215;28;20059;-65
2023/03/29 10:04:37;;;;;;;0.20;0.20;;;;;;;20.60;33.76;101433.06;5078814;28;20421;-64
2023/03/29 10:07:04;;;;;;;0.20;0.20;;;;;;;20.27;34.27;101435.00;5095729;28;20127;-65
2023/03/29 10:09:33;;;;;;;0.13;0.13;;;;;;;20.11;34.21;101438.16;5078452;28;20081;-65
2023/03/29 10:12:02;;;;;;;0.20;0.20;;;;;;;19.75;34.37;101442.03;5078767;28;20032;-64
2023/03/29 10:14:50;;;;;;;0.20;0.20;;;;;;;20.74;33.57;101433.09;5096190;28;20570;-66
2023/03/29 10:17:20;;;;;;;0.20;0.20;;;;;;;20.75;33.83;101434.72;5095964;28;20028;-65
2023/03/29 10:19:51;;;;;;;0.20;0.20;;;;;;;20.65;34.50;101424.19;5096425;28;20020;-64
2023/03/29 10:22:21;;;;;;;0.20;0.20;;;;;;;19.68;35.57;101425.06;5095432;28;20068;-63
2023/03/29 10:24:52;;;;;;;0.20;0.20;;;;;;;19.54;36.10;101431.41;5077869;28;20024;-62
2023/03/29 10:27:29;;;;;;;0.17;0.17;;;;;;;19.90;35.48;101418.31;5078205;28;20032;-64
2023/03/29 10:29:59;;;;;;;0.20;0.20;;;;;;;19.97;35.68;101428.81;5095924;28;20028;-65
2023/03/29 10:32:34;;;;;;;0.20;0.20;;;;;;;20.05;35.92;101424.84;5095746;28;20038;-63
2023/03/29 10:35:09;;;;;;;0.20;0.20;;;;;;;19.97;35.66;101421.16;5095664;28;20024;-63
2023/03/29 10:37:40;;;;;;;0.20;0.20;;;;;;;20.25;35.27;101434.59;5077930;28;20455;-62
2023/03/29 10:40:22;;;;;;;0.20;0.20;;;;;;;20.56;35.02;101433.09;5078016;28;20129;-63
2023/03/29 10:42:50;;;;;;;0.20;0.20;;;;;;;19.80;35.53;101428.34;5096210;28;20039;-64
2023/03/29 10:45:27;;;;;;;0.10;0.10;;;;;;;19.77;35.55;101415.03;5096020;28;20059;-64
2023/03/29 10:47:57;;;;;;;0.20;0.20;;;;;;;19.66;35.29;101419.81;5078231;28;20035;-64
2023/03/29 10:50:32;;;;;;;0.20;0.20;;;;;;;19.85;35.32;101413.84;5077793;28;20420;-65
2023/03/29 10:52:57;;;;;;;0.20;0.20;;;;;;;19.73;35.76;101411.38;5095423;28;20027;-62
2023/03/29 10:55:34;;;;;;;0.20;0.20;;;;;;;20.17;35.19;101406.69;5077581;28;20032;-63
2023/03/29 10:58:19;;;;;;;0.20;0.20;;;;;;;20.39;34.20;101420.47;5094307;28;20114;-63
2023/03/29 11:00:55;;;;;;;0.20;0.20;;;;;;;20.23;33.35;101414.38;5094232;28;20059;-64
2023/03/29 11:03:30;;;;;;;0.20;0.20;;;;;;;20.22;34.40;101417.63;5077845;28;20409;-63
2023/03/29 11:06:07;;;;;;;0.20;0.20;;;;;;;19.67;35.60;101410.16;5077339;28;20139;-62
2023/03/29 11:08:51;;;;;;;0.20;0.20;;;;;;;18.91;36.20;101419.28;5077288;28;20023;-64
2023/03/29 11:11:25;;;;;;;0.20;0.20;;;;;;;19.62;35.41;101413.34;5094694;28;20135;-63
2023/03/29 11:14:03;;;;;;;0.20;0.20;;;;;;;20.34;34.26;101415.22;5077655;28;20028;-64
2023/03/29 11:16:44;;;;;;;0.20;0.20;;;;;;;20.00;34.53;101408.25;5077247;28;20028;-68
2023/03/29 11:19:18;;;;;;;0.20;0.20;;;;;;;19.70;35.38;101417.00;5094074;28;20024;-64
2023/03/29 11:22:05;;;;;;;0.20;0.20;;;;;;;19.53;35.24;101418.50;5077566;28;20123;-63
2023/03/29 11:25:01;;;;;;;0.20;0.20;;;;;;;19.43;35.44;101422.06;5094641;28;20057;-64
2023/03/29 11:27:49;;;;;;;0.20;0.20;;;;;;;18.61;36.85;101394.00;5077588;28;20063;-64
2023/03/29 11:30:35;;;;;;;0.20;0.20;;;;;;;18.70;36.82;101379.63;5077053;28;20024;-64
2023/03/29 11:33:21;;;;;;;0.20;0.20;;;;;;;19.03;36.44;101407.69;5093841;28;20024;-63
2023/03/29 11:36:09;;;;;;;0.20;0.20;;;;;;;19.22;37.12;101408.63;5094778;28;20020;-63
2023/03/29 11:39:03;;;;;;;0.20;0.20;;;;;;;19.24;36.43;101398.56;5093782;28;20028;-64
2023/03/29 11:41:39;;;;;;;0.20;0.20;;;;;;;18.68;37.83;101399.72;5077184;28;20423;-63
2023/03/29 11:44:30;;;;;;;0.20;0.20;;;;;;;18.73;37.63;101388.09;5077429;28;20122;-64
2023/03/29 11:47:16;;;;;;;0.20;0.20;;;;;;;18.98;37.96;101391.13;5077264;28;20030;-63
2023/03/29 11:50:06;;;;;;;0.20;0.20;;;;;;;18.99;37.09;101400.41;5052849;28;20040;-65